Time;durP1;ratioP1;P1;durP2;ratioP2;P2;SDS_P1;SDS_P2;PMS_P1;PMS_P2;Temp;Humidity;BMP_temperature;BMP_pressure;BME280_temperature;BME280_humidity;BME280_pressure;Samples;Min_cycle;Max_cycle;Signal;HPM_P1;HPM_P2
2023/06/18 04:31:02;;;;;;;;;5.00;4.25;;;;;25.22;54.43;100648.47;5077383;27;45527;-75
2023/06/18 04:33:27;;;;;;;;;3.25;3.25;;;;;25.26;54.40;100656.16;5047177;28;45466;-75
2023/06/18 04:35:52;;;;;;;;;3.75;3.75;;;;;25.21;53.15;100647.59;5029730;28;45557;-76
2023/06/18 04:38:18;;;;;;;;;7.50;5.25;;;;;25.24;53.35;100661.00;5053096;28;52990;-78
2023/06/18 04:40:43;;;;;;;;;8.50;4.50;;;;;25.23;53.95;100655.66;5044987;28;45341;-77
2023/06/18 04:43:09;;;;;;;;;3.75;3.00;;;;;25.29;54.05;100663.22;5056233;28;45753;-77
2023/06/18 04:45:34;;;;;;;;;5.50;4.50;;;;;25.26;54.05;100660.81;5037841;28;46165;-77
2023/06/18 04:47:59;;;;;;;;;2.75;2.75;;;;;25.36;54.01;100674.38;5042439;28;45419;-77
2023/06/18 04:50:25;;;;;;;;;4.75;4.75;;;;;25.35;54.10;100670.78;5056410;28;45257;-76
2023/06/18 04:52:50;;;;;;;;;4.75;4.75;;;;;25.31;53.60;100680.38;5056320;28;45840;-76
2023/06/18 04:55:16;;;;;;;;;6.50;5.50;;;;;25.36;54.05;100685.34;5056408;28;45473;-76
2023/06/18 04:57:41;;;;;;;;;8.00;5.00;;;;;25.37;53.93;100685.19;5055576;28;45386;-77
2023/06/18 05:00:08;;;;;;;;;6.00;4.75;;;;;25.30;53.86;100681.41;5056150;28;45334;-77
2023/06/18 05:02:34;;;;;;;;;7.00;4.25;;;;;25.29;54.15;100667.84;5037428;28;45639;-78
2023/06/18 05:04:59;;;;;;;;;4.50;3.00;;;;;25.33;53.71;100674.72;5055899;28;45390;-77
2023/06/18 05:07:25;;;;;;;;;5.75;5.50;;;;;25.30;53.99;100672.31;5037681;28;48413;-74
2023/06/18 05:09:50;;;;;;;;;5.00;5.00;;;;;25.29;54.13;100687.91;5055827;28;45314;-76
2023/06/18 05:12:15;;;;;;;;;3.25;3.25;;;;;25.24;54.41;100687.56;5036035;28;45570;-76
2023/06/18 05:14:41;;;;;;;;;5.50;4.25;;;;;25.12;55.03;100673.28;5043692;28;45485;-76
2023/06/18 05:17:06;;;;;;;;;6.00;6.00;;;;;25.10;55.06;100683.56;5055211;28;45418;-76
2023/06/18 05:19:31;;;;;;;;;5.25;4.25;;;;;25.03;55.07;100668.78;5048049;28;45206;-77
2023/06/18 05:21:58;;;;;;;;;4.75;4.50;;;;;25.11;55.31;100676.19;5049974;28;45245;-75
2023/06/18 05:24:23;;;;;;;;;5.50;4.75;;;;;25.13;54.98;100679.63;5034070;28;45348;-76
2023/06/18 05:26:48;;;;;;;;;5.00;5.00;;;;;25.20;55.04;100683.44;5049431;28;45656;-75
2023/06/18 05:29:16;;;;;;;;;7.00;4.75;;;;;25.17;54.71;100678.28;5055560;28;45406;-78
2023/06/18 05:31:41;;;;;;;;;5.75;5.75;;;;;25.23;55.08;100688.59;5053590;28;45667;-75
2023/06/18 05:34:06;;;;;;;;;4.50;4.50;;;;;25.23;55.29;100680.38;5045027;28;45260;-75
2023/06/18 05:36:31;;;;;;;;;5.50;5.50;;;;;25.19;55.37;100677.06;5041619;28;45607;-77
2023/06/18 05:38:59;;;;;;;;;6.00;6.00;;;;;25.18;55.41;100672.59;5047575;28;45328;-75
2023/06/18 05:41:25;;;;;;;;;5.00;5.00;;;;;25.20;55.42;100687.03;5034671;28;45470;-76
2023/06/18 05:43:51;;;;;;;;;5.25;5.25;;;;;25.29;55.42;100692.53;5035184;28;45457;-76
2023/06/18 05:46:16;;;;;;;;;5.00;5.00;;;;;25.26;55.56;100685.53;5034394;28;45427;-76
2023/06/18 05:48:42;;;;;;;;;4.00;4.00;;;;;25.29;55.60;100682.44;5034806;28;45245;-74
2023/06/18 05:51:07;;;;;;;;;6.50;6.50;;;;;25.37;54.95;100689.81;5034907;28;45177;-75
2023/06/18 05:53:32;;;;;;;;;4.25;4.25;;;;;25.39;54.83;100685.03;5034518;28;50879;-76
2023/06/18 05:55:59;;;;;;;;;6.75;5.50;;;;;25.40;54.79;100684.00;5034726;28;47169;-75
2023/06/18 05:58:24;;;;;;;;;8.25;6.00;;;;;25.29;54.65;100660.47;5034663;28;45433;-77
2023/06/18 06:00:50;;;;;;;;;7.75;6.75;;;;;25.38;54.18;100673.19;5034491;28;45685;-75
2023/06/18 06:03:15;;;;;;;;;4.00;4.00;;;;;25.42;55.14;100676.47;5035109;28;45328;-75
2023/06/18 06:05:41;;;;;;;;;5.50;5.50;;;;;25.47;55.30;100679.56;5034689;28;45465;-76
2023/06/18 06:08:06;;;;;;;;;5.00;5.00;;;;;25.52;54.15;100691.75;5034854;28;45394;-75
2023/06/18 06:10:33;;;;;;;;;7.50;6.00;;;;;25.54;54.13;100686.09;5036388;28;45501;-78
2023/06/18 06:12:58;;;;;;;;;7.75;7.75;;;;;25.54;54.07;100688.84;5045340;28;45388;-74
2023/06/18 06:15:23;;;;;;;;;7.00;6.25;;;;;25.53;54.78;100689.88;5034253;28;45512;-78
2023/06/18 06:17:49;;;;;;;;;8.75;7.00;;;;;25.52;54.21;100683.50;5034450;28;45311;-75
2023/06/18 06:20:14;;;;;;;;;7.50;7.00;;;;;25.59;54.39;100681.88;5035629;28;46229;-75
2023/06/18 06:22:40;;;;;;;;;8.25;6.00;;;;;25.64;54.08;100686.84;5047222;28;45339;-78
2023/06/18 06:25:06;;;;;;;;;9.25;7.00;;;;;25.66;53.93;100689.44;5037511;28;45560;-78
2023/06/18 06:27:33;;;;;;;;;7.25;7.25;;;;;25.69;53.79;100675.38;5049204;28;45336;-76
2023/06/18 06:30:01;;;;;;;;;7.75;6.75;;;;;25.69;53.88;100684.44;5051281;28;45342;-74
2023/06/18 06:32:28;;;;;;;;;8.25;7.25;;;;;25.64;53.78;100678.59;5043863;28;45426;-78
2023/06/18 06:34:53;;;;;;;;;8.25;7.75;;;;;25.58;53.70;100660.03;5047625;28;46162;-75
2023/06/18 06:37:19;;;;;;;;;6.25;6.25;;;;;25.58;53.73;100669.13;5041731;28;45292;-77
2023/06/18 06:39:44;;;;;;;;;6.00;6.00;;;;;25.67;53.49;100677.41;5052581;28;45356;-77
2023/06/18 06:42:10;;;;;;;;;8.00;7.00;;;;;25.68;54.08;100679.13;5048293;28;45268;-76
2023/06/18 06:44:36;;;;;;;;;6.25;5.50;;;;;25.73;53.60;100679.47;5053429;28;46473;-77
2023/06/18 06:47:01;;;;;;;;;8.00;8.00;;;;;25.64;53.60;100670.38;5051192;28;45327;-76
2023/06/18 06:49:27;;;;;;;;;8.00;8.00;;;;;25.75;53.28;100692.03;5027137;28;45419;-77
2023/06/18 06:51:55;;;;;;;;;7.00;7.00;;;;;25.72;53.64;100678.63;5039705;28;45492;-76
2023/06/18 06:54:21;;;;;;;;;6.00;5.75;;;;;25.58;53.61;100662.78;5036927;28;46361;-76
2023/06/18 06:56:47;;;;;;;;;8.00;6.75;;;;;25.73;52.82;100685.81;5034094;28;45787;-76
2023/06/18 06:59:12;;;;;;;;;7.50;7.50;;;;;25.70;53.37;100680.66;5019622;28;45706;-75
2023/06/18 07:01:39;;;;;;;;;8.50;7.50;;;;;25.67;52.83;100672.78;5053437;28;45467;-76
2023/06/18 07:04:05;;;;;;;;;8.00;7.00;;;;;25.75;53.35;100682.91;5045385;28;45452;-80
2023/06/18 07:06:30;;;;;;;;;7.00;7.00;;;;;25.78;52.98;100694.41;5050960;28;45440;-76
2023/06/18 07:08:57;;;;;;;;;6.00;6.00;;;;;25.69;52.78;100676.19;5045653;28;45336;-77
2023/06/18 07:11:23;;;;;;;;;11.75;10.25;;;;;25.66;52.38;100667.47;5033777;28;47177;-82
2023/06/18 07:13:48;;;;;;;;;5.75;4.00;;;;;25.62;52.82;100667.78;5048935;28;46145;-81
2023/06/18 07:16:13;;;;;;;;;7.00;7.00;;;;;25.65;52.60;100665.72;5047031;28;45333;-79
2023/06/18 07:18:39;;;;;;;;;11.50;9.25;;;;;25.78;52.59;100688.06;5044004;28;45397;-74
2023/06/18 07:21:04;;;;;;;;;8.25;6.00;;;;;25.78;52.55;100690.78;5054867;28;45304;-75
2023/06/18 07:23:30;;;;;;;;;10.25;9.00;;;;;25.76;52.36;100687.38;5056864;28;46958;-74
2023/06/18 07:25:56;;;;;;;;;9.50;8.75;;;;;25.81;52.30;100683.09;5057540;28;45320;-72
2023/06/18 07:28:22;;;;;;;;;8.75;8.00;;;;;25.83;52.17;100697.53;5039126;28;45400;-73
2023/06/18 07:30:47;;;;;;;;;8.00;8.00;;;;;25.84;51.61;100690.16;5057137;28;45628;-73
2023/06/18 07:33:13;;;;;;;;;7.75;7.50;;;;;25.88;51.73;100697.84;5054806;28;48834;-74
2023/06/18 07:35:38;;;;;;;;;10.25;9.50;;;;;25.89;52.10;100685.84;5049800;28;45461;-75
2023/06/18 07:38:04;;;;;;;;;11.50;10.00;;;;;25.95;51.77;100690.66;5043780;28;45545;-77
2023/06/18 07:40:33;;;;;;;;;11.75;10.50;;;;;26.01;51.80;100683.63;5031480;28;45462;-76
2023/06/18 07:42:59;;;;;;;;;9.50;8.50;;;;;26.00;51.51;100671.78;5042477;28;45478;-76
2023/06/18 07:45:25;;;;;;;;;11.00;10.00;;;;;26.00;51.99;100660.78;5038922;28;45536;-76
2023/06/18 07:47:50;;;;;;;;;11.00;10.00;;;;;26.15;51.62;100682.94;5057313;28;45409;-73
2023/06/18 07:50:16;;;;;;;;;10.50;9.50;;;;;26.21;51.35;100679.47;5057011;28;45377;-75
2023/06/18 07:52:41;;;;;;;;;9.00;9.00;;;;;26.27;50.82;100684.34;5057195;28;45324;-75
2023/06/18 07:55:07;;;;;;;;;12.75;11.00;;;;;26.25;51.15;100677.25;5057198;28;45448;-75
2023/06/18 07:57:32;;;;;;;;;9.25;9.25;;;;;26.32;51.04;100683.81;5056868;28;45477;-76
2023/06/18 07:59:57;;;;;;;;;12.50;11.50;;;;;26.35;50.38;100683.47;5038760;28;45433;-76
2023/06/18 08:02:23;;;;;;;;;11.50;9.25;;;;;26.40;50.66;100680.19;5056548;28;45434;-75
2023/06/18 08:04:48;;;;;;;;;10.75;9.50;;;;;26.44;50.29;100681.56;5056980;28;45466;-75
2023/06/18 08:07:13;;;;;;;;;9.50;9.50;;;;;26.46;50.79;100665.72;5056605;28;46600;-75
2023/06/18 08:09:39;;;;;;;;;9.75;9.75;;;;;26.56;50.07;100669.16;5056682;28;45376;-75
2023/06/18 08:12:05;;;;;;;;;11.50;10.50;;;;;26.59;49.76;100669.69;5056156;28;45347;-76
2023/06/18 08:14:30;;;;;;;;;10.75;10.75;;;;;26.63;49.41;100671.03;5046092;28;46798;-75
2023/06/18 08:16:56;;;;;;;;;9.00;8.50;;;;;26.68;49.95;100660.38;5054208;28;45526;-76
2023/06/18 08:19:21;;;;;;;;;7.75;6.75;;;;;26.73;49.15;100666.19;5055674;28;45406;-76
2023/06/18 08:21:47;;;;;;;;;8.75;8.75;;;;;26.86;49.70;100671.16;5042555;28;45883;-75
2023/06/18 08:24:13;;;;;;;;;8.50;8.50;;;;;26.89;49.20;100670.78;5036304;28;45306;-74
2023/06/18 08:26:39;;;;;;;;;11.00;10.50;;;;;26.94;49.28;100668.41;5035969;28;45335;-74
2023/06/18 08:29:04;;;;;;;;;8.25;8.00;;;;;26.98;48.97;100671.63;5042868;28;45350;-79
2023/06/18 08:31:30;;;;;;;;;9.25;7.75;;;;;26.99;48.35;100660.44;5037421;28;46544;-75
2023/06/18 08:33:55;;;;;;;;;9.50;9.25;;;;;27.02;48.22;100656.50;5044172;28;45438;-75
2023/06/18 08:36:21;;;;;;;;;10.00;10.00;;;;;27.00;48.60;100639.28;5043054;28;45362;-78
2023/06/18 08:38:46;;;;;;;;;10.50;9.50;;;;;27.11;47.98;100652.66;5036246;28;45364;-77
2023/06/18 08:41:12;;;;;;;;;9.00;9.00;;;;;27.13;48.16;100652.50;5030515;28;47145;-76
2023/06/18 08:43:38;;;;;;;;;14.00;12.00;;;;;27.17;47.89;100649.19;5052622;28;45395;-78
2023/06/18 08:46:10;;;;;;;;;7.50;7.50;;;;;27.20;48.12;100654.34;5043135;28;45906;-73
2023/06/18 08:48:43;;;;;;;;;11.00;9.25;;;;;27.10;47.40;100629.78;5043331;28;45411;-79
2023/06/18 08:51:10;;;;;;;;;11.75;9.75;;;;;27.21;47.93;100645.06;5055703;28;46579;-74
2023/06/18 08:53:49;;;;;;;;;10.00;10.00;;;;;27.28;47.59;100647.94;5054902;28;45493;-73
2023/06/18 08:56:19;;;;;;;;;10.50;10.25;;;;;27.25;47.54;100635.38;5036570;28;45485;-76
2023/06/18 08:58:51;;;;;;;;;12.75;12.25;;;;;27.28;47.11;100637.78;5037559;28;45344;-76
2023/06/18 09:01:21;;;;;;;;;15.00;12.00;;;;;27.36;46.40;100645.13;5054555;28;46628;-75
2023/06/18 09:03:47;;;;;;;;;13.75;11.00;;;;;27.30;46.87;100626.59;5050719;28;45430;-75
2023/06/18 09:06:13;;;;;;;;;12.50;10.50;;;;;27.42;46.60;100639.75;5048372;28;45520;-74
2023/06/18 09:08:39;;;;;;;;;11.75;11.75;;;;;27.48;45.98;100646.41;5032949;28;45988;-73
2023/06/18 09:11:05;;;;;;;;;14.25;9.75;;;;;27.39;46.12;100629.09;5041961;28;45504;-75
2023/06/18 09:13:31;;;;;;;;;9.25;8.00;;;;;27.52;46.33;100630.41;5043949;28;45187;-73
2023/06/18 09:15:56;;;;;;;;;11.75;11.75;;;;;27.50;46.37;100625.06;5017385;28;45296;-76
2023/06/18 09:18:24;;;;;;;;;9.75;9.75;;;;;27.57;46.14;100636.22;5035906;28;45200;-74
2023/06/18 09:20:52;;;;;;;;;10.00;10.00;;;;;27.59;45.98;100635.03;5035452;28;45299;-78
2023/06/18 09:23:17;;;;;;;;;12.75;10.00;;;;;27.56;45.40;100618.84;5035759;28;45331;-75
2023/06/18 09:25:52;;;;;;;;;12.00;10.50;;;;;27.55;45.41;100630.94;5035222;28;45391;-80
2023/06/18 09:28:19;;;;;;;;;14.00;13.00;;;;;27.58;46.17;100627.78;5035705;28;45396;-77
2023/06/18 09:30:51;;;;;;;;;12.50;11.50;;;;;27.53;45.98;100610.09;5035564;28;45556;-75
2023/06/18 09:33:43;;;;;;;;;10.50;10.25;;;;;27.55;45.91;100613.56;5038587;28;45520;-73
2023/06/18 09:36:09;;;;;;;;;11.00;10.00;;;;;27.60;46.06;100609.19;5039779;28;45471;-76
2023/06/18 09:38:37;;;;;;;;;12.00;10.50;;;;;27.66;46.57;100613.09;5035106;28;45395;-77
2023/06/18 09:41:10;;;;;;;;;12.75;11.50;;;;;27.65;46.23;100597.59;5037225;28;47660;-79
2023/06/18 09:43:37;;;;;;;;;10.75;10.75;;;;;27.74;46.38;100613.91;5054361;28;45426;-78
2023/06/18 09:46:04;;;;;;;;;13.75;13.75;;;;;27.75;46.36;100606.50;5055584;28;45467;-80
2023/06/18 09:48:30;;;;;;;;;14.75;12.50;;;;;27.86;46.32;100608.81;5055487;28;45478;-74
2023/06/18 09:50:56;;;;;;;;;17.25;14.00;;;;;27.90;46.70;100590.88;5055072;28;45340;-74
2023/06/18 09:53:22;;;;;;;;;15.00;13.00;;;;;28.02;46.38;100596.78;5055066;28;45367;-75
2023/06/18 09:55:48;;;;;;;;;11.75;11.50;;;;;28.01;46.99;100595.91;5056763;28;45493;-78
2023/06/18 09:58:14;;;;;;;;;15.00;13.00;;;;;28.11;46.20;100591.00;5055449;28;46149;-76
2023/06/18 10:00:39;;;;;;;;;16.75;13.50;;;;;28.20;46.04;100597.31;5055408;28;46259;-77
2023/06/18 10:03:06;;;;;;;;;15.25;15.25;;;;;28.26;45.50;100603.97;5054651;28;45285;-77
2023/06/18 10:05:33;;;;;;;;;15.50;15.50;;;;;28.28;45.15;100593.63;5057641;28;45413;-76
2023/06/18 10:08:01;;;;;;;;;17.75;15.75;;;;;28.34;45.61;100609.41;5056038;28;45467;-78
2023/06/18 10:10:28;;;;;;;;;18.25;15.00;;;;;28.37;45.36;100601.63;5042937;28;45298;-77
2023/06/18 10:12:59;;;;;;;;;17.00;15.00;;;;;28.43;45.22;100600.00;5047661;28;45249;-76
2023/06/18 10:15:25;;;;;;;;;17.75;16.75;;;;;28.38;45.03;100600.59;5034532;28;45360;-76
2023/06/18 10:17:55;;;;;;;;;18.25;16.00;;;;;28.36;45.61;100599.91;5034182;28;45463;-75
2023/06/18 10:20:23;;;;;;;;;17.25;16.25;;;;;28.41;44.77;100602.94;5034232;28;46428;-75
2023/06/18 10:22:56;;;;;;;;;14.50;13.00;;;;;28.38;44.77;100594.22;5042265;28;46017;-74
2023/06/18 10:25:22;;;;;;;;;19.00;16.25;;;;;28.45;45.06;100601.53;5043018;28;45417;-76
2023/06/18 10:27:49;;;;;;;;;17.50;17.25;;;;;28.52;44.58;100598.84;5054642;28;45381;-75
2023/06/18 10:30:18;;;;;;;;;15.00;15.00;;;;;28.53;44.88;100595.91;5054431;28;45486;-75
2023/06/18 10:32:44;;;;;;;;;15.75;13.50;;;;;28.49;43.53;100582.72;5054431;28;45376;-77
2023/06/18 10:35:13;;;;;;;;;20.50;19.50;;;;;28.55;43.65;100585.56;5049737;28;45436;-76
2023/06/18 10:37:41;;;;;;;;;17.50;16.75;;;;;28.56;43.44;100590.03;5028100;28;45894;-80
2023/06/18 10:40:08;;;;;;;;;15.75;15.25;;;;;28.49;43.37;100574.44;5018808;28;46350;-78
2023/06/18 10:42:34;;;;;;;;;14.75;14.25;;;;;28.53;44.57;100587.66;5034529;28;45417;-77
2023/06/18 10:45:15;;;;;;;;;15.50;15.25;;;;;28.49;44.16;100572.53;5039496;28;45320;-75
2023/06/18 10:47:41;;;;;;;;;19.50;15.00;;;;;28.51;44.40;100570.41;5037915;28;46111;-78
2023/06/18 10:50:12;;;;;;;;;17.50;17.00;;;;;28.57;44.42;100574.34;5054279;28;45357;-77
2023/06/18 10:52:41;;;;;;;;;17.25;16.50;;;;;28.63;45.02;100569.94;5054721;28;45386;-80
2023/06/18 10:55:09;;;;;;;;;18.00;16.50;;;;;28.67;44.61;100572.13;5056435;28;45327;-77
2023/06/18 10:57:56;;;;;;;;;15.50;13.50;;;;;28.72;43.61;100566.03;5061457;28;45455;-78
2023/06/18 11:00:29;;;;;;;;;18.25;16.50;;;;;28.69;44.26;100549.88;5059118;28;45383;-76
2023/06/18 11:03:03;;;;;;;;;20.25;14.25;;;;;28.68;43.65;100548.16;5061359;28;45736;-75
2023/06/18 11:05:32;;;;;;;;;17.50;16.50;;;;;28.74;43.89;100564.81;5063626;28;45266;-76
2023/06/18 11:08:12;;;;;;;;;17.00;15.50;;;;;28.59;43.67;100533.59;5062289;28;45376;-78
2023/06/18 11:10:45;;;;;;;;;22.25;18.50;;;;;28.71;43.41;100545.88;5061474;28;47507;-77
2023/06/18 11:13:11;;;;;;;;;15.25;14.75;;;;;28.70;43.69;100541.41;5051847;28;45503;-76
2023/06/18 11:16:00;;;;;;;;;17.75;17.25;;;;;28.80;44.16;100550.28;5038536;28;45561;-75
2023/06/18 11:18:27;;;;;;;;;19.00;16.50;;;;;28.84;43.90;100542.44;5040219;28;45337;-76
2023/06/18 11:20:56;;;;;;;;;19.25;17.50;;;;;28.91;44.15;100547.03;5037633;28;46623;-76
2023/06/18 11:23:23;;;;;;;;;18.50;17.25;;;;;28.95;43.76;100534.53;5040451;28;45514;-75
2023/06/18 11:25:49;;;;;;;;;18.00;15.75;;;;;29.00;42.13;100546.91;5040803;28;45311;-75
2023/06/18 11:28:15;;;;;;;;;21.00;17.75;;;;;28.93;42.38;100546.78;5040496;28;45449;-76
2023/06/18 11:30:49;;;;;;;;;20.50;17.50;;;;;28.80;42.37;100541.13;5039808;28;46206;-76
2023/06/18 11:33:23;;;;;;;;;19.00;18.50;;;;;28.69;43.17;100530.56;5043064;28;45241;-76
2023/06/18 11:35:50;;;;;;;;;13.50;13.00;;;;;28.69;43.80;100514.84;5052826;28;45442;-74
2023/06/18 11:38:18;;;;;;;;;20.00;18.50;;;;;28.80;43.97;100519.06;5053152;28;45521;-73
2023/06/18 11:41:01;;;;;;;;;22.00;18.75;;;;;28.84;43.46;100520.38;5027991;28;46522;-75
2023/06/18 11:43:43;;;;;;;;;21.00;20.25;;;;;28.90;43.88;100508.56;5040238;28;45400;-78
2023/06/18 11:46:24;;;;;;;;;19.00;18.50;;;;;29.00;44.22;100498.06;5052285;28;45595;-74
2023/06/18 11:48:49;;;;;;;;;18.75;16.00;;;;;29.07;43.45;100490.72;5060465;28;45892;-74
2023/06/18 11:51:15;;;;;;;;;18.25;18.25;;;;;29.05;43.25;100494.72;5059984;28;46190;-78
2023/06/18 11:53:40;;;;;;;;;15.00;14.75;;;;;29.13;43.92;100486.31;5061250;28;45485;-77
2023/06/18 11:56:06;;;;;;;;;23.25;21.00;;;;;29.16;43.94;100477.63;5060509;28;45305;-75
2023/06/18 11:58:31;;;;;;;;;18.75;17.75;;;;;29.28;43.93;100482.41;5060517;28;45224;-75
2023/06/18 12:00:57;;;;;;;;;14.50;14.50;;;;;29.41;43.58;100481.72;5059798;28;46018;-74
2023/06/18 12:03:33;;;;;;;;;16.75;16.75;;;;;29.53;42.98;100465.44;5061374;28;45846;-76
2023/06/18 12:05:59;;;;;;;;;15.75;15.25;;;;;29.61;43.65;100445.97;5060522;28;45370;-75
2023/06/18 12:08:24;;;;;;;;;18.50;16.75;;;;;29.70;42.46;100470.47;5056173;28;45510;-73
2023/06/18 12:10:49;;;;;;;;;13.00;13.00;;;;;29.78;41.33;100458.41;5054396;28;45459;-75
2023/06/18 12:13:37;;;;;;;;;15.50;15.50;;;;;29.73;41.43;100438.84;5039158;28;45385;-75
2023/06/18 12:16:13;;;;;;;;;14.00;12.75;;;;;29.92;41.69;100437.25;5057675;28;45332;-77
2023/06/18 12:18:43;;;;;;;;;16.75;15.00;;;;;30.09;41.11;100431.22;5057503;28;45514;-76
2023/06/18 12:21:09;;;;;;;;;18.00;15.75;;;;;30.23;41.03;100428.53;5057411;28;46579;-75
2023/06/18 12:23:37;;;;;;;;;15.00;14.00;;;;;30.37;40.35;100430.28;5056700;28;45228;-76
2023/06/18 12:26:03;;;;;;;;;15.25;15.25;;;;;30.40;40.31;100419.66;5056851;28;45458;-75
2023/06/18 12:28:33;;;;;;;;;14.00;14.00;;;;;30.46;40.83;100421.59;5055911;28;45665;-77
2023/06/18 12:31:05;;;;;;;;;14.75;13.75;;;;;30.55;40.56;100430.59;5056360;28;46092;-76
2023/06/18 12:33:37;;;;;;;;;12.50;11.00;;;;;30.51;40.37;100418.25;5018207;28;45532;-74
2023/06/18 12:36:04;;;;;;;;;16.50;13.00;;;;;30.46;39.92;100399.47;5036581;28;45443;-74
2023/06/18 12:38:41;;;;;;;;;11.75;7.00;;;;;30.46;39.55;100415.19;5036062;28;46059;-76
2023/06/18 12:41:08;;;;;;;;;14.25;11.00;;;;;30.48;39.80;100419.47;5036784;28;47102;-76
2023/06/18 12:43:41;;;;;;;;;10.50;9.75;;;;;30.36;39.01;100418.38;5036119;28;45280;-79
2023/06/18 12:46:07;;;;;;;;;9.50;8.25;;;;;30.43;39.51;100421.16;5036393;28;45434;-76
2023/06/18 12:48:42;;;;;;;;;8.25;8.00;;;;;30.47;38.97;100403.06;5017755;28;46362;-76
2023/06/18 12:51:07;;;;;;;;;10.75;6.75;;;;;30.56;37.84;100415.69;5035868;28;46207;-76
2023/06/18 12:53:34;;;;;;;;;3.75;3.50;;;;;30.50;37.54;100418.41;5036227;28;45371;-74
2023/06/18 12:56:22;;;;;;;;;9.00;8.00;;;;;30.41;37.48;100420.53;5036757;28;45522;-77
2023/06/18 12:58:48;;;;;;;;;11.75;10.75;;;;;30.36;38.81;100412.84;5036238;28;46200;-74
2023/06/18 13:01:15;;;;;;;;;8.00;8.00;;;;;30.37;39.45;100409.00;5035902;28;46136;-74
2023/06/18 13:03:41;;;;;;;;;10.25;9.00;;;;;30.38;40.07;100398.78;5036099;28;45402;-75
2023/06/18 13:06:07;;;;;;;;;9.50;8.50;;;;;30.36;40.75;100409.22;5036485;28;45447;-78
2023/06/18 13:08:33;;;;;;;;;10.50;10.50;;;;;30.44;41.33;100387.78;5035652;28;45943;-76
2023/06/18 13:10:58;;;;;;;;;12.25;9.75;;;;;30.52;40.12;100397.81;5017436;28;47384;-76
2023/06/18 13:13:23;;;;;;;;;15.25;11.50;;;;;30.56;40.29;100393.56;5035798;28;45363;-73
2023/06/18 13:15:53;;;;;;;;;12.25;11.25;;;;;30.64;40.04;100390.59;5035787;28;45368;-72
2023/06/18 13:18:19;;;;;;;;;11.75;10.75;;;;;30.68;40.31;100391.06;5034840;28;45522;-72
2023/06/18 13:20:45;;;;;;;;;11.75;10.00;;;;;30.68;40.57;100379.97;5035028;28;46447;-71
2023/06/18 13:23:11;;;;;;;;;12.00;12.00;;;;;30.69;40.36;100368.72;5035595;28;45355;-73
2023/06/18 13:25:37;;;;;;;;;11.50;11.50;;;;;30.74;40.16;100366.16;5035625;28;45258;-73
2023/06/18 13:28:03;;;;;;;;;13.50;12.25;;;;;30.74;39.93;100357.84;5035564;28;45283;-72
2023/06/18 13:30:29;;;;;;;;;13.25;10.50;;;;;30.86;40.55;100357.22;5034644;28;45521;-71
2023/06/18 13:32:56;;;;;;;;;13.75;13.25;;;;;30.84;39.50;100346.38;5050772;28;45282;-73
2023/06/18 13:35:22;;;;;;;;;12.25;12.25;;;;;30.84;39.34;100347.22;5040517;28;45493;-71
2023/06/18 13:37:47;;;;;;;;;10.00;9.00;;;;;30.87;38.44;100339.56;5043189;28;45391;-75
2023/06/18 13:40:13;;;;;;;;;8.75;8.75;;;;;30.82;39.60;100338.25;5053487;28;46224;-73
2023/06/18 13:42:38;;;;;;;;;9.75;9.00;;;;;30.79;38.43;100319.31;5053948;28;45439;-74
2023/06/18 13:45:04;;;;;;;;;8.75;8.50;;;;;30.74;38.88;100323.78;5055119;28;45485;-75
2023/06/18 13:47:30;;;;;;;;;10.75;9.25;;;;;30.76;39.22;100327.19;5055456;28;45411;-72
2023/06/18 13:49:56;;;;;;;;;9.50;9.00;;;;;30.74;39.45;100324.63;5054742;28;46350;-73
2023/06/18 13:52:21;;;;;;;;;11.00;8.75;;;;;30.70;39.16;100325.28;5055115;28;45318;-73
2023/06/18 13:54:47;;;;;;;;;11.00;9.75;;;;;30.62;39.19;100311.66;5054949;28;45306;-74
2023/06/18 13:57:13;;;;;;;;;11.00;9.75;;;;;30.66;39.52;100312.91;5055254;28;45422;-73
2023/06/18 13:59:38;;;;;;;;;8.75;8.75;;;;;30.59;39.75;100304.63;5055039;28;45352;-76
2023/06/18 14:02:04;;;;;;;;;13.25;10.75;;;;;30.58;39.48;100305.66;5054828;28;45328;-77
2023/06/18 14:04:34;;;;;;;;;14.00;11.25;;;;;30.64;40.26;100317.81;5054716;28;45447;-75
2023/06/18 14:07:00;;;;;;;;;15.25;10.75;;;;;30.65;39.88;100320.38;5054775;28;45366;-74
2023/06/18 14:09:26;;;;;;;;;11.00;10.75;;;;;30.57;40.73;100319.72;5054663;28;45926;-74
2023/06/18 14:11:51;;;;;;;;;10.25;10.25;;;;;30.57;40.93;100309.50;5040283;28;45626;-75
2023/06/18 14:14:19;;;;;;;;;9.25;9.25;;;;;30.52;40.42;100302.91;5053648;28;45441;-74
2023/06/18 14:16:44;;;;;;;;;11.00;10.75;;;;;30.52;40.73;100303.75;5054567;28;46526;-74
2023/06/18 14:19:09;;;;;;;;;10.00;8.00;;;;;30.51;40.24;100295.63;5054304;28;45343;-75
2023/06/18 14:21:35;;;;;;;;;11.00;9.25;;;;;30.52;39.13;100289.94;5054625;28;45362;-75
2023/06/18 14:24:04;;;;;;;;;6.25;5.25;;;;;30.58;38.89;100283.53;5054659;28;45463;-75
2023/06/18 14:26:31;;;;;;;;;6.00;6.00;;;;;30.64;39.20;100279.91;5054684;28;45549;-74
2023/06/18 14:28:56;;;;;;;;;4.75;4.75;;;;;30.73;39.21;100280.56;5054230;28;45386;-76
2023/06/18 14:31:21;;;;;;;;;4.25;4.00;;;;;30.71;37.85;100263.34;5053647;28;45236;-75
2023/06/18 14:33:47;;;;;;;;;3.75;3.75;;;;;30.88;36.78;100272.88;5046654;28;45486;-74
2023/06/18 14:36:12;;;;;;;;;4.00;3.00;;;;;30.96;36.92;100261.63;5046354;28;45150;-74
2023/06/18 14:38:38;;;;;;;;;0.00;0.00;;;;;30.99;36.28;100261.16;5022874;28;48452;-74
2023/06/18 14:41:03;;;;;;;;;3.50;3.50;;;;;31.04;37.08;100266.09;5053973;28;49267;-75
2023/06/18 14:43:28;;;;;;;;;4.25;2.75;;;;;31.01;35.24;100259.03;5054550;28;45494;-75
2023/06/18 14:45:53;;;;;;;;;3.00;3.00;;;;;31.04;36.19;100264.16;5042125;28;45340;-74
2023/06/18 14:48:19;;;;;;;;;3.50;3.50;;;;;31.03;35.43;100265.22;5052646;28;45341;-75
2023/06/18 14:50:44;;;;;;;;;3.25;2.00;;;;;31.07;36.55;100263.75;5054196;28;45347;-75
2023/06/18 14:53:11;;;;;;;;;3.00;3.00;;;;;31.06;36.35;100250.94;5054304;28;47045;-74
2023/06/18 14:55:37;;;;;;;;;3.00;3.00;;;;;31.13;36.02;100242.66;5054202;28;45465;-75
2023/06/18 14:58:02;;;;;;;;;3.00;3.00;;;;;31.16;35.64;100239.44;5053769;28;46369;-75
2023/06/18 15:00:27;;;;;;;;;4.75;4.00;;;;;31.21;35.64;100234.13;5035866;28;45433;-72
2023/06/18 15:02:53;;;;;;;;;3.00;3.00;;;;;31.24;35.81;100238.34;5053914;28;45542;-72
2023/06/18 15:05:18;;;;;;;;;2.50;2.50;;;;;31.31;35.92;100230.88;5042778;28;45424;-75
2023/06/18 15:07:43;;;;;;;;;3.00;3.00;;;;;31.38;35.86;100223.44;5038532;28;45642;-72
2023/06/18 15:10:09;;;;;;;;;2.25;2.25;;;;;31.49;35.57;100229.13;5043755;28;45338;-77
2023/06/18 15:12:34;;;;;;;;;6.00;4.75;;;;;31.55;35.77;100208.00;5038863;28;45561;-76
2023/06/18 15:15:01;;;;;;;;;3.75;3.75;;;;;31.66;35.38;100196.25;5054001;28;45422;-77
2023/06/18 15:17:26;;;;;;;;;3.50;3.00;;;;;31.77;35.68;100198.34;5035638;28;47812;-74
2023/06/18 15:19:57;;;;;;;;;3.00;3.00;;;;;31.71;35.15;100181.75;5054245;28;45387;-76
2023/06/18 15:22:25;;;;;;;;;4.00;4.00;;;;;31.63;35.14;100188.41;5053995;28;45331;-74
2023/06/18 15:24:51;;;;;;;;;6.75;4.50;;;;;31.56;35.64;100184.75;5053789;28;45459;-74
2023/06/18 15:27:16;;;;;;;;;5.50;5.50;;;;;31.52;35.55;100187.13;5047452;28;46037;-70
2023/06/18 15:29:42;;;;;;;;;5.25;4.75;;;;;31.37;35.26;100163.53;5046383;28;45444;-74
2023/06/18 15:32:07;;;;;;;;;4.00;4.00;;;;;31.32;35.29;100146.72;5053742;28;45376;-72
2023/06/18 15:34:33;;;;;;;;;4.00;4.00;;;;;31.27;35.25;100129.91;5018160;28;46177;-73
2023/06/18 15:36:59;;;;;;;;;5.50;5.50;;;;;31.19;35.02;100111.63;5046334;28;46100;-71
2023/06/18 15:39:25;;;;;;;;;8.25;5.25;;;;;31.06;35.43;100120.78;5045677;28;45285;-71
2023/06/18 15:41:50;;;;;;;;;8.25;4.75;;;;;30.99;35.63;100131.03;5053828;28;45555;-71
2023/06/18 15:44:16;;;;;;;;;6.00;4.75;;;;;30.95;35.69;100126.19;5057206;28;46310;-71
2023/06/18 15:46:43;;;;;;;;;4.00;4.00;;;;;31.00;36.36;100129.13;5056851;28;45441;-72